Altamont, Kansas
Current Conditions -  °F | °C
As of 11:52 PM on Tuesday 25 Nov 2014 (Local Time) from KPPF Reporting Station
Broken Clouds Broken Clouds  
Wind Chill: 35°   Ceiling: 12000
Heat Index: 40°   Visibility: 10mi
Dew Point: 25°   Wind: 7mph
Humidity: 55%   Direction: 150°SSE
Pressure: 30.03"   Gusts: NA
Location:  37.19°N, 95.3°W
Report Text: KPPF 260552Z AUTO 15006KT 10SM BKN120 04/M04 A3003 RMK AO2 SLP172 T00441039 10050 20033 400831078 58020
Loading
Personal Weather Stations






























Interactive Weather Map New forecast layout! Learn more

10-Day Weather Forecast

Advertisements
Track Severe Weather on mobile